createdAt,value
2023-03-13T00:01:13.529Z,25.08
2023-03-13T00:03:41.612Z,25.06
2023-03-13T00:06:11.168Z,25.07
2023-03-13T00:08:39.428Z,25.02
2023-03-13T00:11:09.102Z,25.07
2023-03-13T00:13:37.222Z,25.08
2023-03-13T00:16:07.176Z,25.10
2023-03-13T00:18:35.627Z,25.09
2023-03-13T00:21:05.171Z,24.98
2023-03-13T00:23:36.167Z,25.11
2023-03-13T00:26:06.347Z,25.10
2023-03-13T00:28:36.294Z,25.11
2023-03-13T00:31:05.816Z,25.10
2023-03-13T00:33:34.576Z,25.09
2023-03-13T00:36:03.693Z,25.10
2023-03-13T00:38:32.183Z,25.07
2023-03-13T00:41:03.097Z,25.12
2023-03-13T00:43:31.440Z,25.12
2023-03-13T00:45:59.464Z,25.11
2023-03-13T00:48:27.594Z,25.10
2023-03-13T00:50:56.277Z,25.10
2023-03-13T00:53:24.724Z,25.10
2023-03-13T00:55:54.357Z,25.10
2023-03-13T00:58:24.841Z,25.11
2023-03-13T01:00:53.185Z,25.09
2023-03-13T01:03:22.095Z,25.08
2023-03-13T01:05:57.282Z,25.08
2023-03-13T01:08:27.864Z,25.05
2023-03-13T01:10:59.848Z,24.86
2023-03-13T01:13:29.578Z,25.01
2023-03-13T01:15:58.936Z,24.99
2023-03-13T01:18:27.020Z,24.93
2023-03-13T01:20:55.068Z,24.96
2023-03-13T01:23:23.085Z,24.95
2023-03-13T01:25:50.952Z,24.95
2023-03-13T01:28:19.141Z,24.95
2023-03-13T01:30:48.568Z,24.94
2023-03-13T01:33:16.804Z,24.94
2023-03-13T01:35:44.933Z,24.90
2023-03-13T01:38:14.716Z,24.91
2023-03-13T01:40:43.192Z,24.73
2023-03-13T01:43:26.384Z,24.89
2023-03-13T01:46:02.042Z,24.88
2023-03-13T01:48:44.266Z,24.87
2023-03-13T01:51:17.820Z,24.87
2023-03-13T01:53:50.136Z,24.86
2023-03-13T01:56:22.509Z,24.81
2023-03-13T01:58:53.511Z,24.87
2023-03-13T02:01:24.714Z,24.87
2023-03-13T02:03:53.713Z,24.86
2023-03-13T02:06:21.806Z,24.86
2023-03-13T02:08:54.473Z,24.87
2023-03-13T02:11:30.730Z,24.88
2023-03-13T02:14:00.321Z,24.87
2023-03-13T02:16:30.334Z,24.88
2023-03-13T02:18:58.282Z,24.86
2023-03-13T02:21:42.420Z,24.86
2023-03-13T02:24:19.359Z,24.86
2023-03-13T02:26:48.818Z,24.85
2023-03-13T02:29:19.165Z,24.84
2023-03-13T02:31:48.470Z,24.81
2023-03-13T02:34:22.078Z,24.85
2023-03-13T02:36:51.133Z,24.83
2023-03-13T02:39:24.574Z,24.83
2023-03-13T02:41:55.198Z,24.83
2023-03-13T02:44:23.380Z,24.83
2023-03-13T02:46:53.381Z,24.83
2023-03-13T02:49:27.552Z,24.79
2023-03-13T02:51:58.950Z,24.81
2023-03-13T02:54:31.703Z,24.77
2023-03-13T02:57:04.125Z,24.79
2023-03-13T02:59:32.845Z,24.78
2023-03-13T03:02:00.918Z,24.78
2023-03-13T03:04:28.905Z,24.76
2023-03-13T03:06:57.617Z,24.81
2023-03-13T03:09:26.346Z,24.82
2023-03-13T03:11:58.934Z,24.82
2023-03-13T03:14:30.766Z,24.84
2023-03-13T03:16:58.823Z,24.83
2023-03-13T03:19:28.024Z,24.84
2023-03-13T03:21:56.035Z,24.83
2023-03-13T03:24:23.924Z,24.83
2023-03-13T03:26:52.014Z,24.85
2023-03-13T03:29:28.760Z,24.83
2023-03-13T03:31:59.404Z,24.85
2023-03-13T03:34:27.602Z,24.84
2023-03-13T03:36:56.964Z,24.85
2023-03-13T03:39:24.944Z,24.85
2023-03-13T03:41:52.916Z,24.86
2023-03-13T03:44:22.064Z,24.86
2023-03-13T03:46:55.851Z,24.87
2023-03-13T03:49:26.509Z,24.88
2023-03-13T03:51:54.820Z,24.87
2023-03-13T03:54:29.380Z,24.86
2023-03-13T03:56:57.669Z,24.86
2023-03-13T03:59:25.980Z,24.84
2023-03-13T04:01:59.245Z,24.86
2023-03-13T04:04:31.264Z,24.87
2023-03-13T04:07:06.981Z,24.85
2023-03-13T04:09:35.770Z,24.84
2023-03-13T04:12:05.612Z,24.85
2023-03-13T04:14:37.895Z,24.85
2023-03-13T04:17:08.541Z,24.87
2023-03-13T04:19:37.950Z,24.87
2023-03-13T04:22:06.171Z,24.87
2023-03-13T04:24:34.320Z,24.87
2023-03-13T04:27:03.681Z,24.89
2023-03-13T04:29:32.193Z,24.87
2023-03-13T04:32:29.497Z,24.89
2023-03-13T04:35:19.050Z,24.90
2023-03-13T04:38:16.496Z,24.90
2023-03-13T04:41:08.026Z,24.89
2023-03-13T04:43:45.932Z,24.89
2023-03-13T04:46:32.476Z,24.89
2023-03-13T04:49:29.817Z,24.77
2023-03-13T04:52:11.617Z,24.93
2023-03-13T04:54:57.989Z,24.91
2023-03-13T04:57:40.202Z,24.93
2023-03-13T05:00:43.921Z,24.73
2023-03-13T05:03:42.072Z,24.93
2023-03-13T05:06:22.885Z,24.94
2023-03-13T05:08:58.028Z,24.96
2023-03-13T05:11:55.976Z,24.94
2023-03-13T05:14:43.675Z,24.96
2023-03-13T05:17:32.194Z,24.97
2023-03-13T05:20:18.497Z,24.97
2023-03-13T05:22:55.032Z,24.96
2023-03-13T05:25:36.830Z,24.99
2023-03-13T05:28:28.314Z,24.98
2023-03-13T05:31:10.854Z,24.98
2023-03-13T05:34:07.784Z,24.81
2023-03-13T05:36:58.567Z,24.99
2023-03-13T05:39:55.546Z,24.99
2023-03-13T05:42:48.178Z,25.00
2023-03-13T05:45:41.796Z,24.89
2023-03-13T05:48:25.459Z,24.99
2023-03-13T05:51:15.862Z,24.99
2023-03-13T05:54:00.593Z,25.00
2023-03-13T05:57:00.775Z,25.00
2023-03-13T05:59:46.626Z,25.02
2023-03-13T06:02:33.560Z,25.01
2023-03-13T06:05:02.748Z,24.92
2023-03-13T06:07:30.776Z,25.03
2023-03-13T06:09:58.972Z,25.05
2023-03-13T06:12:27.045Z,25.05
2023-03-13T06:14:56.378Z,25.05
2023-03-13T06:17:31.748Z,24.97
2023-03-13T06:19:59.739Z,25.09
2023-03-13T06:22:27.629Z,25.11
2023-03-13T06:24:56.388Z,25.14
2023-03-13T06:27:24.372Z,25.17
2023-03-13T06:29:52.358Z,25.18
2023-03-13T06:32:21.687Z,25.20
2023-03-13T06:34:49.733Z,25.23
2023-03-13T06:37:17.881Z,25.13
2023-03-13T06:39:45.874Z,25.23
2023-03-13T06:42:13.785Z,25.26
2023-03-13T06:44:42.065Z,25.28
2023-03-13T06:47:10.144Z,25.28
2023-03-13T06:49:39.484Z,25.31
2023-03-13T06:52:07.440Z,25.29
2023-03-13T06:54:35.347Z,25.36
2023-03-13T06:57:03.324Z,25.36
2023-03-13T06:59:31.218Z,25.37
2023-03-13T07:01:59.216Z,25.30
2023-03-13T07:04:27.210Z,25.38
2023-03-13T07:06:56.634Z,25.36
2023-03-13T07:09:24.644Z,25.26
2023-03-13T07:11:52.625Z,25.35
2023-03-13T07:14:20.619Z,25.35
2023-03-13T07:16:48.662Z,25.34
2023-03-13T07:19:17.157Z,25.35
2023-03-13T07:21:45.152Z,25.35
2023-03-13T07:24:14.572Z,25.35
2023-03-13T07:26:51.167Z,25.35
2023-03-13T07:29:22.446Z,25.36
2023-03-13T07:31:50.684Z,25.37
2023-03-13T07:34:18.704Z,25.39
2023-03-13T07:36:46.786Z,25.40
2023-03-13T07:39:16.074Z,25.43
2023-03-13T07:41:44.094Z,25.45
2023-03-13T07:44:17.076Z,25.48
2023-03-13T07:46:46.041Z,25.50
2023-03-13T07:49:13.946Z,25.49
2023-03-13T07:51:44.261Z,25.50
2023-03-13T07:54:12.750Z,25.50
2023-03-13T07:56:42.121Z,25.47
2023-03-13T07:59:10.351Z,25.51
2023-03-13T08:01:38.254Z,25.51
2023-03-13T08:04:06.676Z,25.59
2023-03-13T08:06:36.685Z,25.65
2023-03-13T08:09:05.596Z,25.70
2023-03-13T08:11:33.900Z,25.73
2023-03-13T08:14:03.387Z,25.74
2023-03-13T08:16:34.267Z,25.74
2023-03-13T08:19:05.177Z,25.76
2023-03-13T08:21:34.487Z,25.75
2023-03-13T08:24:06.046Z,25.78
2023-03-13T08:26:35.489Z,25.76
2023-03-13T08:29:07.083Z,25.75
2023-03-13T08:31:36.545Z,25.73
2023-03-13T08:34:05.157Z,25.72
2023-03-13T08:36:35.149Z,25.71
2023-03-13T08:39:05.850Z,25.72
2023-03-13T08:41:36.145Z,25.76
2023-03-13T08:44:06.240Z,25.81
2023-03-13T08:46:36.353Z,25.83
2023-03-13T08:49:05.957Z,25.84
2023-03-13T08:51:35.416Z,25.86
2023-03-13T08:54:04.328Z,25.87
2023-03-13T08:56:34.818Z,25.87
2023-03-13T08:59:05.979Z,25.90
2023-03-13T09:01:35.888Z,25.95
2023-03-13T09:04:05.764Z,25.97
2023-03-13T09:06:34.139Z,25.94
2023-03-13T09:09:02.851Z,25.97
2023-03-13T09:11:31.019Z,25.98
2023-03-13T09:13:59.753Z,25.86
2023-03-13T09:16:30.941Z,25.99
2023-03-13T09:18:59.794Z,26.02
2023-03-13T09:21:29.931Z,26.08
2023-03-13T09:23:58.925Z,26.10
2023-03-13T09:26:28.266Z,25.89
2023-03-13T09:28:56.772Z,26.12
2023-03-13T09:31:26.899Z,26.12
2023-03-13T09:33:56.802Z,26.15
2023-03-13T09:36:25.490Z,26.17
2023-03-13T09:38:54.996Z,26.16
2023-03-13T09:41:31.318Z,26.10
2023-03-13T09:44:06.586Z,26.21
2023-03-13T09:46:40.918Z,26.20
2023-03-13T09:49:18.433Z,26.20
2023-03-13T09:51:52.085Z,26.22
2023-03-13T09:54:26.854Z,26.27
2023-03-13T09:56:58.691Z,26.06
2023-03-13T09:59:35.554Z,26.32
2023-03-13T10:02:06.426Z,26.32
2023-03-13T10:04:42.137Z,26.14
2023-03-13T10:07:12.478Z,26.31
2023-03-13T10:09:41.751Z,26.40
2023-03-13T10:12:17.663Z,26.28
2023-03-13T10:14:53.757Z,26.45
2023-03-13T10:17:32.364Z,26.22
2023-03-13T10:20:10.690Z,26.46
2023-03-13T10:22:40.369Z,26.28
2023-03-13T10:25:13.003Z,26.47
2023-03-13T10:27:45.813Z,26.48
2023-03-13T10:30:23.915Z,26.47
2023-03-13T10:32:52.043Z,26.43
2023-03-13T10:35:26.344Z,26.40
2023-03-13T10:38:04.665Z,26.38
2023-03-13T10:40:33.190Z,26.30
2023-03-13T10:43:04.668Z,26.26
2023-03-13T10:45:35.494Z,26.16
2023-03-13T10:48:11.784Z,26.24
2023-03-13T10:50:44.621Z,26.22
2023-03-13T10:53:26.988Z,26.20
2023-03-13T10:55:56.458Z,26.16
2023-03-13T10:58:31.478Z,26.13
2023-03-13T11:01:17.307Z,26.11
2023-03-13T11:03:46.548Z,26.08
2023-03-13T11:06:29.236Z,26.07
2023-03-13T11:09:03.106Z,26.04
2023-03-13T11:11:31.863Z,26.02
2023-03-13T11:14:10.766Z,26.01
2023-03-13T11:16:47.796Z,25.97
2023-03-13T11:19:31.122Z,25.96
2023-03-13T11:22:18.144Z,25.92
2023-03-13T11:24:52.081Z,25.87
2023-03-13T11:27:27.942Z,25.87
2023-03-13T11:30:06.045Z,25.87
2023-03-13T11:32:42.229Z,25.86
2023-03-13T11:35:22.164Z,25.86
2023-03-13T11:37:56.750Z,25.87
2023-03-13T11:40:31.193Z,25.87
2023-03-13T11:43:25.585Z,25.89
2023-03-13T11:46:10.091Z,25.88
2023-03-13T11:48:55.015Z,25.88
2023-03-13T11:51:29.657Z,25.75
2023-03-13T11:54:24.890Z,25.89
2023-03-13T11:56:58.045Z,25.89
2023-03-13T11:59:37.593Z,25.71
2023-03-13T12:02:16.662Z,25.88
2023-03-13T12:04:48.376Z,25.87
2023-03-13T12:07:22.537Z,25.88
2023-03-13T12:09:56.925Z,25.88
2023-03-13T12:12:38.904Z,25.87
2023-03-13T12:15:19.639Z,25.85
2023-03-13T12:17:51.724Z,25.85
2023-03-13T12:20:25.050Z,25.84
2023-03-13T12:22:59.648Z,25.84
2023-03-13T12:25:34.404Z,25.70
2023-03-13T12:28:17.005Z,25.84
2023-03-13T12:30:50.031Z,25.82
2023-03-13T12:33:25.198Z,25.82
2023-03-13T12:35:59.728Z,25.80
2023-03-13T12:38:32.399Z,25.81
2023-03-13T12:41:13.483Z,25.81
2023-03-13T12:43:54.345Z,25.78
2023-03-13T12:46:37.970Z,25.78
2023-03-13T12:49:44.113Z,25.76
2023-03-13T12:52:50.558Z,25.71
2023-03-13T12:55:39.021Z,25.73
2023-03-13T12:58:30.536Z,25.74
2023-03-13T13:01:04.640Z,25.74
2023-03-13T13:03:36.343Z,25.74
2023-03-13T13:06:10.244Z,25.75
2023-03-13T13:08:40.803Z,25.74
2023-03-13T13:11:52.244Z,25.75
2023-03-13T13:14:57.864Z,25.74
2023-03-13T13:17:55.217Z,25.73
2023-03-13T13:20:36.559Z,25.73
2023-03-13T13:23:39.257Z,25.73
2023-03-13T13:26:46.963Z,25.74
2023-03-13T13:29:59.195Z,25.62
2023-03-13T13:32:42.187Z,25.72
2023-03-13T13:35:27.695Z,25.72
2023-03-13T13:38:30.309Z,25.72
2023-03-13T13:41:03.591Z,25.71
2023-03-13T13:43:33.666Z,25.72
2023-03-13T13:46:09.051Z,25.72
2023-03-13T13:48:39.809Z,25.69
2023-03-13T13:51:35.068Z,25.59
2023-03-13T13:54:08.016Z,25.70
2023-03-13T13:56:46.963Z,25.70
2023-03-13T13:59:42.228Z,25.69
2023-03-13T14:02:20.627Z,25.68
2023-03-13T14:04:56.604Z,25.66
2023-03-13T14:07:31.725Z,25.65
2023-03-13T14:10:07.972Z,25.63
2023-03-13T14:12:37.992Z,25.60
2023-03-13T14:15:17.006Z,25.60
2023-03-13T14:17:46.955Z,25.59
2023-03-13T14:20:33.311Z,25.58
2023-03-13T14:23:03.595Z,25.56
2023-03-13T14:25:45.066Z,25.53
2023-03-13T14:28:21.789Z,25.55
2023-03-13T14:30:52.195Z,25.55
2023-03-13T14:33:20.760Z,25.56
2023-03-13T14:35:49.257Z,25.39
2023-03-13T14:38:19.567Z,25.55
2023-03-13T14:40:49.458Z,25.56
2023-03-13T14:43:24.536Z,25.55
2023-03-13T14:45:52.977Z,25.52
2023-03-13T14:48:24.681Z,25.50
2023-03-13T14:51:14.170Z,25.50
2023-03-13T14:53:54.876Z,25.45
2023-03-13T14:56:33.806Z,25.49
2023-03-13T14:59:09.807Z,25.53
2023-03-13T15:01:37.810Z,25.58
2023-03-13T15:04:06.110Z,25.62
2023-03-13T15:06:34.200Z,25.64
2023-03-13T15:09:20.251Z,25.66
2023-03-13T15:11:58.540Z,25.52
2023-03-13T15:14:41.128Z,25.72
2023-03-13T15:17:16.071Z,25.74
2023-03-13T15:19:44.481Z,25.28
2023-03-13T15:22:15.633Z,25.76
2023-03-13T15:24:56.110Z,25.64
2023-03-13T15:27:33.804Z,25.78
2023-03-13T15:30:01.705Z,25.83
2023-03-13T15:32:31.868Z,25.84
2023-03-13T15:35:01.819Z,25.86
2023-03-13T15:37:30.989Z,25.86
2023-03-13T15:39:59.178Z,25.82
2023-03-13T15:42:27.368Z,25.88
2023-03-13T15:44:56.745Z,25.89
2023-03-13T15:47:24.786Z,25.90
2023-03-13T15:49:52.797Z,25.89
2023-03-13T15:52:22.964Z,25.91
2023-03-13T15:54:52.289Z,25.91
2023-03-13T15:57:23.998Z,25.91
2023-03-13T15:59:52.051Z,25.89
2023-03-13T16:02:23.246Z,25.87
2023-03-13T16:04:52.325Z,25.86
2023-03-13T16:07:21.894Z,25.85
2023-03-13T16:09:50.139Z,25.85
2023-03-13T16:12:18.145Z,25.83
2023-03-13T16:14:46.109Z,25.83
2023-03-13T16:17:17.548Z,25.84
2023-03-13T16:19:48.060Z,25.82
2023-03-13T16:22:17.397Z,25.81
2023-03-13T16:24:45.346Z,25.80
2023-03-13T16:27:15.790Z,25.81
2023-03-13T16:29:43.910Z,25.80
2023-03-13T16:32:14.208Z,25.82
2023-03-13T16:34:43.041Z,25.82
2023-03-13T16:37:14.760Z,25.84
2023-03-13T16:39:43.016Z,25.84
2023-03-13T16:42:20.810Z,25.86
2023-03-13T16:44:48.742Z,25.88
2023-03-13T16:47:22.156Z,25.89
2023-03-13T16:49:50.371Z,25.87
2023-03-13T16:52:19.144Z,25.85
2023-03-13T16:54:47.458Z,25.83
2023-03-13T16:57:17.960Z,25.82
2023-03-13T16:59:47.353Z,25.79
2023-03-13T17:02:17.003Z,25.80
2023-03-13T17:04:45.549Z,25.78
2023-03-13T17:07:19.144Z,25.77
2023-03-13T17:09:47.700Z,25.76
2023-03-13T17:12:15.569Z,25.74
2023-03-13T17:14:43.637Z,25.72
2023-03-13T17:17:16.295Z,25.72
2023-03-13T17:19:44.484Z,25.70
2023-03-13T17:22:13.713Z,25.71
2023-03-13T17:24:42.483Z,25.66
2023-03-13T17:27:14.211Z,25.66
2023-03-13T17:29:42.807Z,25.65
2023-03-13T17:32:13.448Z,25.64
2023-03-13T17:34:42.583Z,25.63
2023-03-13T17:37:15.958Z,25.63
2023-03-13T17:39:44.699Z,25.62
2023-03-13T17:42:13.186Z,25.63
2023-03-13T17:44:42.155Z,25.61
2023-03-13T17:47:17.732Z,25.63
2023-03-13T17:49:45.930Z,25.62
2023-03-13T17:52:15.775Z,25.62
2023-03-13T17:54:44.684Z,25.62
2023-03-13T17:57:16.350Z,25.63
2023-03-13T17:59:44.826Z,25.62
2023-03-13T18:02:14.264Z,25.63
2023-03-13T18:04:44.975Z,25.65
2023-03-13T18:07:18.584Z,25.65
2023-03-13T18:09:47.907Z,25.64
2023-03-13T18:12:16.688Z,25.68
2023-03-13T18:14:45.082Z,25.71
2023-03-13T18:17:17.864Z,25.73
2023-03-13T18:19:47.708Z,25.74
2023-03-13T18:22:17.215Z,25.75
2023-03-13T18:24:45.584Z,25.76
2023-03-13T18:27:15.260Z,25.76
2023-03-13T18:29:43.918Z,25.75
2023-03-13T18:32:13.991Z,25.75
2023-03-13T18:34:42.142Z,25.75
2023-03-13T18:37:21.714Z,25.75
2023-03-13T18:39:51.266Z,25.68
2023-03-13T18:42:19.359Z,25.75
2023-03-13T18:44:47.315Z,25.76
2023-03-13T18:47:17.537Z,25.77
2023-03-13T18:49:46.901Z,25.78
2023-03-13T18:52:17.251Z,25.82
2023-03-13T18:54:45.562Z,25.82
2023-03-13T18:57:15.286Z,25.82
2023-03-13T18:59:43.798Z,25.66
2023-03-13T19:02:14.555Z,25.83
2023-03-13T19:04:42.919Z,25.83
2023-03-13T19:07:17.596Z,25.85
2023-03-13T19:09:47.292Z,25.85
2023-03-13T19:12:16.522Z,25.85
2023-03-13T19:14:44.627Z,25.75
2023-03-13T19:17:17.876Z,25.89
2023-03-13T19:19:45.929Z,25.89
2023-03-13T19:22:16.064Z,25.74
2023-03-13T19:24:44.144Z,25.93
2023-03-13T19:27:16.805Z,25.95
2023-03-13T19:29:45.887Z,25.95
2023-03-13T19:32:15.376Z,25.95
2023-03-13T19:34:43.628Z,25.96
2023-03-13T19:37:12.325Z,25.98
2023-03-13T19:39:41.933Z,26.00
2023-03-13T19:42:09.931Z,26.00
2023-03-13T19:44:40.306Z,26.00
2023-03-13T19:47:08.278Z,26.00
2023-03-13T19:49:36.191Z,26.01
2023-03-13T19:52:04.385Z,26.02
2023-03-13T19:54:32.301Z,26.02
2023-03-13T19:57:01.756Z,26.02
2023-03-13T19:59:31.874Z,26.03
2023-03-13T20:02:03.020Z,26.00
2023-03-13T20:04:31.136Z,26.02
2023-03-13T20:06:59.085Z,26.02
2023-03-13T20:09:27.075Z,26.05
2023-03-13T20:11:54.982Z,26.05
2023-03-13T20:14:24.299Z,26.07
2023-03-13T20:16:52.269Z,26.07
2023-03-13T20:19:21.491Z,25.78
2023-03-13T20:21:49.436Z,26.08
2023-03-13T20:24:18.032Z,26.08
2023-03-13T20:26:46.075Z,26.10
2023-03-13T20:29:14.038Z,26.10
2023-03-13T20:31:43.392Z,26.10
2023-03-13T20:34:11.304Z,26.08
2023-03-13T20:36:39.340Z,26.06
2023-03-13T20:39:08.320Z,26.05
2023-03-13T20:41:36.230Z,26.04
2023-03-13T20:44:04.200Z,26.03
2023-03-13T20:46:32.179Z,26.03
2023-03-13T20:49:01.644Z,26.02
2023-03-13T20:51:29.922Z,26.00
2023-03-13T20:53:57.945Z,26.01
2023-03-13T20:56:25.852Z,26.03
2023-03-13T20:58:53.729Z,26.04
2023-03-13T21:01:22.484Z,26.06
2023-03-13T21:03:50.613Z,26.07
2023-03-13T21:06:20.058Z,26.08
2023-03-13T21:08:48.110Z,26.08
2023-03-13T21:11:17.672Z,26.06
2023-03-13T21:13:45.996Z,26.07
2023-03-13T21:16:14.732Z,26.03
2023-03-13T21:18:42.952Z,26.10
2023-03-13T21:21:14.974Z,26.04
2023-03-13T21:23:44.614Z,26.10
2023-03-13T21:26:13.488Z,26.11
2023-03-13T21:28:41.581Z,26.10
2023-03-13T21:31:11.300Z,26.12
2023-03-13T21:33:39.789Z,26.13
2023-03-13T21:36:08.709Z,26.13
2023-03-13T21:38:36.961Z,26.14
2023-03-13T21:41:10.244Z,26.17
2023-03-13T21:43:38.452Z,26.16
2023-03-13T21:46:06.945Z,26.07
2023-03-13T21:48:35.056Z,26.16
2023-03-13T21:51:03.007Z,26.16
2023-03-13T21:53:30.996Z,26.17
2023-03-13T21:55:58.885Z,26.18
2023-03-13T21:58:28.384Z,26.18
2023-03-13T22:00:57.362Z,26.19
2023-03-13T22:03:27.411Z,26.20
2023-03-13T22:05:55.798Z,26.20
2023-03-13T22:08:23.805Z,26.22
2023-03-13T22:10:54.939Z,26.22
2023-03-13T22:13:23.112Z,26.23
2023-03-13T22:15:52.779Z,26.24
2023-03-13T22:18:20.733Z,26.23
2023-03-13T22:20:48.677Z,26.26
2023-03-13T22:23:16.757Z,26.25
2023-03-13T22:25:45.892Z,26.25
2023-03-13T22:28:14.527Z,26.27
2023-03-13T22:30:44.781Z,26.26
2023-03-13T22:33:14.152Z,26.27
2023-03-13T22:35:42.208Z,26.25
2023-03-13T22:38:10.198Z,26.25
2023-03-13T22:40:38.249Z,26.24
2023-03-13T22:43:06.292Z,26.24
2023-03-13T22:45:34.168Z,26.26
2023-03-13T22:48:06.185Z,26.26
2023-03-13T22:50:36.200Z,26.27
2023-03-13T22:53:04.517Z,26.27
2023-03-13T22:55:33.211Z,26.28
2023-03-13T22:58:01.248Z,26.28
2023-03-13T23:00:29.284Z,26.28
2023-03-13T23:02:57.133Z,26.28
2023-03-13T23:05:25.057Z,26.28
2023-03-13T23:07:54.416Z,26.27
2023-03-13T23:10:22.511Z,26.26
2023-03-13T23:12:50.453Z,26.17
2023-03-13T23:15:18.615Z,26.22
2023-03-13T23:17:46.560Z,26.22
2023-03-13T23:20:14.988Z,26.20
2023-03-13T23:22:44.213Z,26.20
2023-03-13T23:25:14.495Z,26.18
2023-03-13T23:27:42.996Z,26.16
2023-03-13T23:30:13.907Z,26.09
2023-03-13T23:32:44.174Z,26.12
2023-03-13T23:35:13.417Z,26.11
2023-03-13T23:37:41.331Z,26.09
2023-03-13T23:40:11.852Z,26.05
2023-03-13T23:42:41.246Z,26.07
2023-03-13T23:45:09.649Z,26.06
2023-03-13T23:47:37.584Z,26.04
2023-03-13T23:50:06.825Z,26.04
2023-03-13T23:52:35.267Z,26.02
2023-03-13T23:55:04.453Z,26.01
2023-03-13T23:57:33.017Z,25.99
